Time;durP1;ratioP1;P1;durP2;ratioP2;P2;SDS_P1;SDS_P2;PMS_P1;PMS_P2;Temp;Humidity;BMP_temperature;BMP_pressure;BME280_temperature;BME280_humidity;BME280_pressure;Samples;Min_cycle;Max_cycle;Signal;HPM_P1;HPM_P2
2021/11/22 00:00:37;;;;;;;19.10;9.00;;;5.20;99.90;;;;;;5088206;28;20110;-83
2021/11/22 00:03:06;;;;;;;19.07;6.27;;;5.20;99.90;;;;;;5121104;28;20030;-84
2021/11/22 00:05:33;;;;;;;21.60;7.03;;;5.20;99.90;;;;;;5121619;28;20035;-83
2021/11/22 00:07:58;;;;;;;16.63;9.03;;;5.10;99.90;;;;;;5104871;28;20061;-82
2021/11/22 00:10:24;;;;;;;16.27;8.37;;;5.00;99.90;;;;;;5121261;28;20083;-81
2021/11/22 00:12:50;;;;;;;17.13;5.33;;;5.00;99.90;;;;;;5121285;28;20035;-83
2021/11/22 00:15:24;;;;;;;13.27;4.83;;;5.10;99.90;;;;;;5104220;28;20043;-82
2021/11/22 00:17:49;;;;;;;16.90;9.53;;;5.10;99.90;;;;;;5085972;28;20036;-81
2021/11/22 00:20:18;;;;;;;14.97;4.10;;;5.10;99.90;;;;;;5121464;28;20055;-82
2021/11/22 00:22:44;;;;;;;18.87;6.93;;;5.10;99.90;;;;;;5122277;28;20024;-83
2021/11/22 00:25:11;;;;;;;14.93;4.53;;;5.10;99.90;;;;;;5126493;28;20027;-81
2021/11/22 00:27:37;;;;;;;14.87;5.87;;;5.10;99.90;;;;;;5125232;28;20038;-81
2021/11/22 00:30:05;;;;;;;17.53;6.63;;;5.00;99.90;;;;;;5106847;28;20024;-81
2021/11/22 00:32:34;;;;;;;13.83;5.80;;;5.00;99.90;;;;;;5091051;28;20035;-82
2021/11/22 00:35:00;;;;;;;15.30;5.50;;;5.00;99.90;;;;;;5124360;28;20049;-81
2021/11/22 00:37:31;;;;;;;22.00;5.10;;;5.00;99.90;;;;;;5124646;28;20020;-83
2021/11/22 00:40:00;;;;;;;16.63;5.13;;;5.00;99.90;;;;;;5124695;28;20028;-83
2021/11/22 00:42:26;;;;;;;12.30;5.17;;;5.00;99.90;;;;;;5107572;28;20027;-82
2021/11/22 00:44:52;;;;;;;11.77;4.27;;;5.00;99.90;;;;;;5124150;28;20031;-83
2021/11/22 00:47:18;;;;;;;12.77;3.57;;;5.00;99.90;;;;;;5123838;28;20072;-84
2021/11/22 00:49:47;;;;;;;11.57;4.43;;;5.00;99.90;;;;;;5123164;28;20399;-79
2021/11/22 00:52:13;;;;;;;9.10;3.90;;;5.00;99.90;;;;;;5122898;28;20032;-84
2021/11/22 00:54:39;;;;;;;14.53;4.50;;;4.90;99.90;;;;;;5126383;28;20075;-82
2021/11/22 00:57:05;;;;;;;13.00;4.03;;;4.90;99.90;;;;;;5133106;28;20024;-82
2021/11/22 00:59:35;;;;;;;9.47;4.03;;;4.90;99.90;;;;;;5099577;28;20027;-82
2021/11/22 01:02:02;;;;;;;11.80;3.93;;;4.90;99.90;;;;;;5115350;28;20027;-82
2021/11/22 01:04:28;;;;;;;13.90;5.30;;;4.90;99.90;;;;;;5133355;28;20024;-81
2021/11/22 01:06:54;;;;;;;7.37;2.97;;;5.00;99.90;;;;;;5133213;28;20048;-82
2021/11/22 01:09:20;;;;;;;8.23;3.80;;;5.10;99.90;;;;;;5125006;28;20051;-81
2021/11/22 01:11:45;;;;;;;8.90;2.30;;;5.10;99.90;;;;;;5109811;28;20024;-82
2021/11/22 01:14:12;;;;;;;8.20;2.23;;;5.10;99.90;;;;;;5107845;28;20059;-81
2021/11/22 01:16:38;;;;;;;7.90;2.60;;;4.90;99.90;;;;;;5108120;28;20052;-82
2021/11/22 01:19:05;;;;;;;10.03;3.73;;;4.90;99.90;;;;;;5129295;28;20043;-82
2021/11/22 01:21:31;;;;;;;9.60;3.53;;;4.90;99.90;;;;;;5125216;28;20035;-81
2021/11/22 01:23:59;;;;;;;9.03;2.70;;;4.90;99.90;;;;;;5125326;28;20035;-82
2021/11/22 01:26:25;;;;;;;9.37;2.83;;;4.90;99.90;;;;;;5125027;28;20032;-81
2021/11/22 01:28:51;;;;;;;10.13;3.13;;;4.90;99.90;;;;;;5126006;28;20023;-82
2021/11/22 01:31:17;;;;;;;10.23;3.13;;;4.90;99.90;;;;;;5123279;28;20024;-82
2021/11/22 01:33:45;;;;;;;7.53;3.63;;;4.90;99.90;;;;;;5124642;28;20035;-84
2021/11/22 01:36:11;;;;;;;12.30;2.60;;;4.90;99.90;;;;;;5125045;28;20036;-82
2021/11/22 01:38:37;;;;;;;12.37;4.20;;;4.90;99.90;;;;;;5126995;28;20026;-82
2021/11/22 01:41:03;;;;;;;12.40;3.60;;;4.90;99.90;;;;;;5108545;28;20538;-82
2021/11/22 01:43:30;;;;;;;8.37;2.30;;;4.90;99.90;;;;;;5126343;28;20034;-82
2021/11/22 01:45:56;;;;;;;11.63;3.50;;;4.90;99.90;;;;;;5125576;28;20057;-82
2021/11/22 01:48:23;;;;;;;9.90;3.37;;;4.90;99.90;;;;;;5108093;28;20051;-83
2021/11/22 01:50:50;;;;;;;12.53;3.50;;;4.90;99.90;;;;;;5107180;28;20111;-82
2021/11/22 01:53:17;;;;;;;8.20;2.77;;;5.00;99.90;;;;;;5125059;28;20032;-82
2021/11/22 01:55:44;;;;;;;10.43;2.80;;;5.00;99.90;;;;;;5125859;28;20032;-82
2021/11/22 01:58:10;;;;;;;9.93;3.37;;;5.00;99.90;;;;;;5124103;28;20033;-82
2021/11/22 02:00:40;;;;;;;12.17;3.10;;;5.00;99.90;;;;;;5123562;28;20024;-82
2021/11/22 02:03:07;;;;;;;9.90;2.80;;;5.00;99.90;;;;;;5123423;28;20076;-81
2021/11/22 02:05:34;;;;;;;9.10;2.80;;;4.90;99.90;;;;;;5122987;28;20023;-81
2021/11/22 02:08:01;;;;;;;6.60;3.30;;;4.90;99.90;;;;;;5088818;28;20113;-82
2021/11/22 02:10:27;;;;;;;7.40;3.10;;;4.90;99.90;;;;;;5124028;28;20055;-82
2021/11/22 02:12:54;;;;;;;7.67;3.43;;;4.90;99.90;;;;;;5125938;28;20063;-82
2021/11/22 02:15:21;;;;;;;11.80;3.80;;;4.80;99.90;;;;;;5125883;28;20063;-82
2021/11/22 02:17:50;;;;;;;10.93;3.97;;;4.80;99.90;;;;;;5125636;28;20030;-81
2021/11/22 02:20:23;;;;;;;7.87;3.00;;;4.90;99.90;;;;;;5123675;28;20490;-82
2021/11/22 02:22:55;;;;;;;9.53;4.20;;;5.00;99.90;;;;;;5123678;28;20020;-82
2021/11/22 02:25:25;;;;;;;9.37;4.10;;;5.10;99.90;;;;;;5107108;28;20035;-81
2021/11/22 02:27:52;;;;;;;12.53;3.70;;;5.20;99.90;;;;;;5123195;28;20042;-82
2021/11/22 02:30:21;;;;;;;10.17;3.43;;;5.30;99.90;;;;;;5122499;28;20047;-81
2021/11/22 02:32:48;;;;;;;10.70;4.00;;;5.40;99.90;;;;;;5122635;28;20534;-82
2021/11/22 02:35:23;;;;;;;9.23;3.40;;;5.50;99.90;;;;;;5122596;28;20023;-82
2021/11/22 02:37:52;;;;;;;8.13;4.03;;;5.50;99.90;;;;;;5124240;28;20023;-82
2021/11/22 02:40:18;;;;;;;6.80;4.20;;;5.60;99.90;;;;;;5105604;28;20031;-82
2021/11/22 02:42:44;;;;;;;11.83;4.77;;;5.70;99.90;;;;;;5123548;28;20047;-82
2021/11/22 02:45:11;;;;;;;12.93;4.93;;;5.80;99.90;;;;;;5123185;28;20020;-84
2021/11/22 02:47:41;;;;;;;8.10;4.67;;;5.80;99.90;;;;;;5122185;28;20463;-81
2021/11/22 02:50:09;;;;;;;8.00;4.50;;;5.80;99.90;;;;;;5123566;28;20024;-81
2021/11/22 02:52:35;;;;;;;7.87;4.73;;;5.80;99.90;;;;;;5105223;28;20475;-80
2021/11/22 02:55:03;;;;;;;10.87;5.20;;;5.60;99.90;;;;;;5104511;28;20223;-81
2021/11/22 02:57:28;;;;;;;8.27;4.87;;;5.60;99.90;;;;;;5104017;28;20030;-81
2021/11/22 02:59:54;;;;;;;10.90;5.00;;;5.70;99.90;;;;;;5121012;28;20047;-80
2021/11/22 03:02:20;;;;;;;10.47;5.50;;;5.60;99.90;;;;;;5104329;28;20028;-81
2021/11/22 03:04:46;;;;;;;8.13;5.23;;;5.70;99.90;;;;;;5087196;28;20028;-81
2021/11/22 03:07:12;;;;;;;8.87;5.17;;;5.60;99.90;;;;;;5120851;28;20027;-79
2021/11/22 03:09:39;;;;;;;11.40;5.97;;;5.70;99.90;;;;;;5103665;28;20493;-80
2021/11/22 03:12:08;;;;;;;9.77;5.90;;;5.70;99.90;;;;;;5120466;28;20081;-79
2021/11/22 03:14:36;;;;;;;14.93;6.20;;;5.60;99.90;;;;;;5119773;28;20154;-81
2021/11/22 03:17:03;;;;;;;8.73;6.17;;;5.50;99.90;;;;;;5120283;28;20055;-80
2021/11/22 03:19:30;;;;;;;11.00;6.23;;;5.50;99.90;;;;;;5103834;28;20028;-79
2021/11/22 03:21:56;;;;;;;13.70;7.30;;;5.60;99.90;;;;;;5120132;28;20177;-80
2021/11/22 03:24:23;;;;;;;11.77;7.47;;;5.60;99.90;;;;;;5120379;28;20444;-79
2021/11/22 03:26:48;;;;;;;9.93;7.27;;;5.70;99.90;;;;;;5120851;28;20027;-80
2021/11/22 03:29:14;;;;;;;12.13;7.83;;;5.70;99.90;;;;;;5085513;28;20039;-79
2021/11/22 03:31:40;;;;;;;13.87;8.40;;;5.60;99.90;;;;;;5119495;28;20028;-78
2021/11/22 03:34:09;;;;;;;12.70;8.70;;;5.60;99.90;;;;;;5119949;28;20035;-80
2021/11/22 03:36:35;;;;;;;14.50;9.37;;;5.60;99.90;;;;;;5120396;28;20016;-84
2021/11/22 03:39:05;;;;;;;14.77;9.03;;;5.50;99.90;;;;;;5119008;28;20038;-79
2021/11/22 03:41:32;;;;;;;13.00;9.13;;;5.60;99.90;;;;;;5118920;28;20034;-80
2021/11/22 03:44:01;;;;;;;10.87;7.70;;;5.60;99.90;;;;;;5085742;28;20032;-80
2021/11/22 03:46:27;;;;;;;10.60;7.63;;;5.60;99.90;;;;;;5121988;28;20039;-81
2021/11/22 03:48:53;;;;;;;11.37;7.60;;;5.60;99.90;;;;;;5119973;28;20028;-80
2021/11/22 03:51:20;;;;;;;10.83;8.17;;;5.60;99.90;;;;;;5119593;28;20020;-81
2021/11/22 03:53:46;;;;;;;11.53;7.47;;;5.70;99.90;;;;;;5121402;28;20048;-80
2021/11/22 03:56:12;;;;;;;8.53;6.60;;;5.70;99.90;;;;;;5120448;28;20035;-79
2021/11/22 03:58:38;;;;;;;12.03;8.23;;;5.70;99.90;;;;;;5106051;28;20066;-83
2021/11/22 04:01:04;;;;;;;10.60;7.87;;;5.70;99.90;;;;;;5124612;28;20020;-79
2021/11/22 04:03:31;;;;;;;12.50;8.00;;;5.70;99.90;;;;;;5107690;28;20038;-78
2021/11/22 04:05:57;;;;;;;13.07;7.53;;;5.70;99.90;;;;;;5108410;28;20023;-81
2021/11/22 04:08:23;;;;;;;13.07;7.83;;;5.60;99.90;;;;;;5124566;28;20035;-80
2021/11/22 04:10:49;;;;;;;9.50;7.50;;;5.70;99.90;;;;;;5124852;28;20074;-78
2021/11/22 04:13:15;;;;;;;9.47;6.80;;;5.70;99.90;;;;;;5125999;27;20036;-81
2021/11/22 04:15:41;;;;;;;10.67;7.20;;;5.80;99.90;;;;;;5124187;28;20062;-83
2021/11/22 04:18:08;;;;;;;11.50;7.67;;;5.80;99.90;;;;;;5124581;28;20123;-80
2021/11/22 04:20:35;;;;;;;9.17;6.90;;;5.70;99.90;;;;;;5124545;28;20019;-81
2021/11/22 04:23:02;;;;;;;11.87;7.40;;;5.70;99.90;;;;;;5124825;28;20032;-81
2021/11/22 04:25:28;;;;;;;11.07;6.90;;;5.70;99.90;;;;;;5124682;28;20027;-82
2021/11/22 04:27:54;;;;;;;12.63;6.67;;;5.70;99.90;;;;;;5107491;28;20069;-80
2021/11/22 04:30:20;;;;;;;7.37;6.03;;;5.70;99.90;;;;;;5125094;28;20027;-80
2021/11/22 04:32:46;;;;;;;9.07;6.53;;;5.70;99.90;;;;;;5107361;28;20023;-81
2021/11/22 04:35:15;;;;;;;10.70;6.10;;;5.70;99.90;;;;;;5124244;28;20027;-80
2021/11/22 04:37:41;;;;;;;10.80;6.63;;;5.80;99.90;;;;;;5124842;28;20039;-80
2021/11/22 04:40:10;;;;;;;9.63;5.10;;;5.90;99.90;;;;;;5124216;28;20030;-81
2021/11/22 04:42:35;;;;;;;7.07;6.37;;;5.90;99.90;;;;;;5124335;28;20015;-81
2021/11/22 04:45:01;;;;;;;9.43;5.87;;;5.80;99.80;;;;;;5121937;28;20475;-79
2021/11/22 04:47:27;;;;;;;8.13;5.67;;;5.80;99.80;;;;;;5124797;28;20028;-78
2021/11/22 04:49:53;;;;;;;8.13;5.47;;;5.80;99.80;;;;;;5123464;28;20024;-79
2021/11/22 04:52:21;;;;;;;6.17;5.00;;;5.80;99.90;;;;;;5122874;28;20439;-81
2021/11/22 04:54:48;;;;;;;8.23;5.27;;;5.90;99.90;;;;;;5122046;28;20123;-83
2021/11/22 04:57:14;;;;;;;9.33;5.53;;;6.00;99.90;;;;;;5122360;28;20028;-79
2021/11/22 04:59:41;;;;;;;8.17;6.43;;;5.90;99.80;;;;;;5122393;28;20112;-78
2021/11/22 05:02:08;;;;;;;9.47;6.40;;;5.90;99.90;;;;;;5126782;28;20031;-79
2021/11/22 05:04:35;;;;;;;8.13;6.10;;;6.00;99.90;;;;;;5123108;28;20031;-80
2021/11/22 05:07:01;;;;;;;7.77;6.17;;;6.00;99.80;;;;;;5090951;28;20024;-81
2021/11/22 05:09:27;;;;;;;9.50;5.87;;;5.90;99.60;;;;;;5124025;28;20020;-79
2021/11/22 05:11:53;;;;;;;8.97;5.80;;;6.00;99.90;;;;;;5123576;28;20052;-79
2021/11/22 05:14:18;;;;;;;7.63;5.70;;;6.10;99.90;;;;;;5088652;28;20063;-80
2021/11/22 05:16:44;;;;;;;6.50;5.17;;;6.10;99.80;;;;;;5122782;28;20051;-79
2021/11/22 05:19:14;;;;;;;8.43;5.57;;;6.10;99.70;;;;;;5123661;28;20348;-79
2021/11/22 05:21:40;;;;;;;7.10;5.23;;;6.10;99.40;;;;;;5123728;28;20379;-81
2021/11/22 05:24:06;;;;;;;9.63;5.23;;;6.00;99.00;;;;;;5123603;28;20041;-79
2021/11/22 05:26:32;;;;;;;7.50;5.50;;;5.90;99.30;;;;;;5128122;28;20023;-79
2021/11/22 05:28:59;;;;;;;9.47;5.60;;;5.80;99.40;;;;;;5129715;28;20019;-81
2021/11/22 05:31:25;;;;;;;13.07;6.90;;;5.80;99.30;;;;;;5128725;28;20024;-79
2021/11/22 05:33:51;;;;;;;9.17;6.37;;;5.70;99.60;;;;;;5128735;28;20042;-80
2021/11/22 05:36:18;;;;;;;9.57;6.80;;;5.80;99.60;;;;;;5131282;28;20026;-79
2021/11/22 05:38:44;;;;;;;10.60;7.90;;;5.60;99.30;;;;;;5110250;28;20028;-81
2021/11/22 05:41:10;;;;;;;9.43;7.00;;;5.60;99.70;;;;;;5111508;28;20020;-80
2021/11/22 05:43:37;;;;;;;10.63;6.60;;;5.60;99.70;;;;;;5128035;28;20081;-80
2021/11/22 05:46:04;;;;;;;16.70;7.57;;;5.50;99.80;;;;;;5128470;28;20150;-80
2021/11/22 05:48:32;;;;;;;12.50;7.50;;;5.50;99.70;;;;;;5128575;28;20030;-79
2021/11/22 05:50:59;;;;;;;8.53;6.70;;;5.50;99.70;;;;;;5111760;28;20091;-79
2021/11/22 05:53:27;;;;;;;8.87;6.83;;;5.60;99.80;;;;;;5129004;28;20038;-80
2021/11/22 05:55:53;;;;;;;8.13;6.63;;;5.50;99.70;;;;;;5111731;28;20032;-83
2021/11/22 05:58:20;;;;;;;9.27;7.17;;;5.50;99.80;;;;;;5112637;28;20039;-82
2021/11/22 06:00:47;;;;;;;9.83;6.97;;;5.50;99.70;;;;;;5125725;28;20436;-83
2021/11/22 06:03:14;;;;;;;8.47;7.40;;;5.50;99.50;;;;;;5107987;28;20032;-80
2021/11/22 06:05:40;;;;;;;10.70;7.27;;;5.50;99.60;;;;;;5088451;28;20449;-80
2021/11/22 06:08:06;;;;;;;9.50;7.57;;;5.50;99.70;;;;;;5122909;28;20082;-81
2021/11/22 06:10:34;;;;;;;10.60;8.30;;;5.40;99.60;;;;;;5121130;28;20047;-79
2021/11/22 06:13:00;;;;;;;12.43;7.97;;;5.40;99.70;;;;;;5122167;28;20031;-82
2021/11/22 06:15:26;;;;;;;11.83;8.87;;;5.40;99.70;;;;;;5122165;28;20071;-80
2021/11/22 06:17:52;;;;;;;10.43;8.67;;;5.40;99.80;;;;;;5121194;28;20127;-81
2021/11/22 06:20:18;;;;;;;15.90;8.83;;;5.40;99.90;;;;;;5104704;28;20055;-79
2021/11/22 06:22:44;;;;;;;14.70;8.63;;;5.50;99.70;;;;;;5122543;28;20026;-79
2021/11/22 06:25:11;;;;;;;12.60;7.77;;;5.50;99.50;;;;;;5098630;28;20027;-79
2021/11/22 06:27:37;;;;;;;12.00;8.23;;;5.40;99.40;;;;;;5113778;28;20506;-78
2021/11/22 06:30:06;;;;;;;12.23;9.67;;;5.40;99.40;;;;;;5114163;28;20375;-80
2021/11/22 06:32:31;;;;;;;11.60;8.53;;;5.30;99.50;;;;;;5113849;28;20031;-80
2021/11/22 06:34:58;;;;;;;13.63;9.33;;;5.30;99.50;;;;;;5097429;28;20035;-80
2021/11/22 06:37:25;;;;;;;11.03;9.83;;;5.20;99.40;;;;;;5114019;28;20440;-79
2021/11/22 06:39:52;;;;;;;13.97;12.57;;;5.20;99.60;;;;;;5113912;28;20028;-79
2021/11/22 06:42:20;;;;;;;14.10;11.63;;;5.20;99.70;;;;;;5115996;28;20028;-79
2021/11/22 06:44:46;;;;;;;15.47;12.63;;;5.20;99.80;;;;;;5115439;28;20050;-78
2021/11/22 06:47:12;;;;;;;14.40;9.63;;;5.30;99.90;;;;;;5099647;28;20053;-79
2021/11/22 06:49:37;;;;;;;12.23;9.23;;;5.30;99.90;;;;;;5098330;28;20031;-79
2021/11/22 06:52:03;;;;;;;11.97;9.43;;;5.30;99.90;;;;;;5080612;28;20367;-81
2021/11/22 06:54:29;;;;;;;11.97;7.80;;;5.50;99.90;;;;;;5113433;28;20139;-78
2021/11/22 06:56:55;;;;;;;16.77;8.30;;;5.50;99.90;;;;;;5096748;28;20024;-81
2021/11/22 06:59:21;;;;;;;13.17;7.40;;;5.50;99.90;;;;;;5113456;28;20031;-81
2021/11/22 07:01:46;;;;;;;9.03;5.60;;;5.60;99.90;;;;;;5096534;28;20115;-80
2021/11/22 07:04:12;;;;;;;6.47;4.60;;;5.60;99.90;;;;;;5096351;28;20028;-80
2021/11/22 07:06:38;;;;;;;7.83;5.10;;;5.60;99.90;;;;;;5114515;28;20536;-80
2021/11/22 07:09:04;;;;;;;8.40;4.63;;;5.50;99.90;;;;;;5096282;28;20169;-80
2021/11/22 07:11:30;;;;;;;12.20;4.73;;;5.40;99.90;;;;;;5079374;28;20031;-79
2021/11/22 07:13:56;;;;;;;10.00;4.80;;;5.40;99.90;;;;;;5113061;28;20039;-81
2021/11/22 07:16:22;;;;;;;11.03;4.80;;;5.30;99.90;;;;;;5112624;28;20112;-80
2021/11/22 07:18:48;;;;;;;9.53;4.30;;;5.30;99.90;;;;;;5113451;28;20028;-79
2021/11/22 07:21:14;;;;;;;10.70;4.87;;;5.30;99.90;;;;;;5079231;28;20463;-80
2021/11/22 07:23:39;;;;;;;8.63;3.90;;;5.20;99.90;;;;;;5113023;28;20551;-80
2021/11/22 07:26:05;;;;;;;9.60;5.17;;;5.20;99.90;;;;;;5095569;28;20067;-80
2021/11/22 07:28:31;;;;;;;10.03;5.23;;;5.20;99.90;;;;;;5095994;28;20031;-79
2021/11/22 07:30:58;;;;;;;8.93;5.23;;;5.50;99.90;;;;;;5112580;28;20051;-79
2021/11/22 07:33:24;;;;;;;11.43;5.37;;;5.80;99.90;;;;;;5094624;28;20038;-79
2021/11/22 07:35:50;;;;;;;7.00;4.67;;;6.10;99.90;;;;;;5112479;28;20023;-80
2021/11/22 07:38:16;;;;;;;8.90;4.37;;;6.50;99.90;;;;;;5112331;28;20031;-77
2021/11/22 07:40:42;;;;;;;8.97;4.17;;;6.90;99.90;;;;;;5112578;28;20032;-81
2021/11/22 07:43:07;;;;;;;10.00;4.10;;;7.10;99.50;;;;;;5095555;28;20069;-79
2021/11/22 07:45:33;;;;;;;6.83;4.47;;;7.20;98.40;;;;;;5112627;28;20039;-78
2021/11/22 07:47:59;;;;;;;10.30;4.87;;;7.50;98.10;;;;;;5112414;28;20136;-79
2021/11/22 07:50:28;;;;;;;10.13;4.17;;;7.70;96.80;;;;;;5113684;28;20082;-80
2021/11/22 07:52:53;;;;;;;6.73;3.27;;;8.00;96.00;;;;;;5111999;28;20031;-80
2021/11/22 07:55:23;;;;;;;11.30;4.70;;;8.30;95.50;;;;;;5113735;28;20024;-80
2021/11/22 07:57:50;;;;;;;9.30;4.87;;;8.50;94.70;;;;;;5112348;28;20020;-80
2021/11/22 08:00:18;;;;;;;8.27;5.43;;;8.80;93.50;;;;;;5112449;28;20027;-79
2021/11/22 08:02:44;;;;;;;14.47;4.33;;;9.10;93.00;;;;;;5113702;28;20077;-78
2021/11/22 08:05:10;;;;;;;9.07;5.27;;;9.50;91.60;;;;;;5112380;28;20027;-78
2021/11/22 08:07:37;;;;;;;8.83;4.67;;;9.60;90.30;;;;;;5112865;28;20032;-79
2021/11/22 08:10:16;;;;;;;7.27;4.30;;;9.80;89.80;;;;;;5113546;28;20444;-78
2021/11/22 08:12:42;;;;;;;11.43;7.10;;;10.00;88.60;;;;;;5113344;28;20068;-80
2021/11/22 08:15:10;;;;;;;5.63;2.40;;;10.20;88.20;;;;;;5112094;28;20043;-79
2021/11/22 08:17:42;;;;;;;8.27;3.80;;;10.40;85.00;;;;;;5112581;28;20020;-81
2021/11/22 08:20:13;;;;;;;7.18;4.35;;;10.50;81.80;;;;;;5112999;28;20379;-79
2021/11/22 08:22:38;;;;;;;9.93;6.33;;;10.60;82.40;;;;;;5111850;28;20027;-77
2021/11/22 08:25:05;;;;;;;4.23;2.67;;;10.60;82.20;;;;;;5078568;28;20119;-77
2021/11/22 08:27:31;;;;;;;9.90;6.13;;;10.80;78.80;;;;;;5113762;28;20024;-77
2021/11/22 08:30:02;;;;;;;8.90;4.23;;;10.80;81.50;;;;;;5112139;28;20020;-79
2021/11/22 08:32:28;;;;;;;10.77;6.03;;;11.10;79.90;;;;;;5112796;28;20393;-80
2021/11/22 08:34:54;;;;;;;5.60;2.80;;;11.30;78.90;;;;;;5095545;28;20032;-80
2021/11/22 08:37:19;;;;;;;12.13;8.35;;;11.40;75.00;;;;;;5113436;28;20520;-82
2021/11/22 08:39:45;;;;;;;7.40;3.75;;;11.40;75.60;;;;;;5112212;28;20028;-85
2021/11/22 08:42:11;;;;;;;12.02;6.15;;;11.20;74.30;;;;;;5112497;28;20440;-81
2021/11/22 08:44:37;;;;;;;9.07;4.73;;;11.00;75.60;;;;;;5099536;28;20085;-82
2021/11/22 08:47:04;;;;;;;6.10;2.23;;;11.00;74.50;;;;;;5100863;28;20455;-81
2021/11/22 08:49:30;;;;;;;5.77;2.70;;;10.90;73.40;;;;;;5116038;28;20031;-80
2021/11/22 08:51:56;;;;;;;13.67;8.43;;;10.90;74.80;;;;;;5116096;28;20024;-80
2021/11/22 08:54:22;;;;;;;4.03;1.53;;;11.10;76.80;;;;;;5115396;28;20513;-82
2021/11/22 08:56:49;;;;;;;10.43;5.27;;;11.10;73.40;;;;;;5098131;28;20032;-79
2021/11/22 08:59:16;;;;;;;5.70;2.83;;;11.20;74.70;;;;;;5116767;28;20107;-79
2021/11/22 09:01:42;;;;;;;9.67;4.57;;;11.10;73.60;;;;;;5115496;28;20458;-80
2021/11/22 09:04:07;;;;;;;6.77;2.70;;;11.10;74.40;;;;;;5098578;28;20414;-79
2021/11/22 09:06:34;;;;;;;9.80;3.58;;;11.50;73.40;;;;;;5115244;28;20032;-78
2021/11/22 09:09:02;;;;;;;2.20;0.90;;;11.60;73.00;;;;;;5115528;28;20101;-80
2021/11/22 09:11:28;;;;;;;3.17;2.28;;;11.60;70.20;;;;;;5098647;28;20024;-81
2021/11/22 09:13:54;;;;;;;6.70;2.10;;;11.20;71.40;;;;;;5115134;28;20466;-81
2021/11/22 09:16:26;;;;;;;3.50;1.23;;;11.00;71.40;;;;;;5114786;28;20590;-80
2021/11/22 09:18:52;;;;;;;4.40;1.30;;;10.90;70.80;;;;;;5098898;28;20039;-81
2021/11/22 09:21:19;;;;;;;4.23;1.47;;;10.80;72.00;;;;;;5097899;28;20031;-79
2021/11/22 09:23:47;;;;;;;5.77;4.57;;;10.80;72.20;;;;;;5081753;28;20032;-80
2021/11/22 09:26:13;;;;;;;9.70;5.93;;;11.00;73.10;;;;;;5116113;28;20404;-80
2021/11/22 09:28:39;;;;;;;12.23;3.80;;;11.10;72.10;;;;;;5116562;28;20024;-79
2021/11/22 09:31:05;;;;;;;6.57;1.17;;;11.10;71.90;;;;;;5115356;28;20065;-80
2021/11/22 09:33:32;;;;;;;35.97;11.67;;;11.30;70.50;;;;;;5098326;28;20035;-79
2021/11/22 09:35:57;;;;;;;4.32;1.63;;;11.50;72.40;;;;;;5115378;28;20026;-80
2021/11/22 09:38:23;;;;;;;16.10;6.63;;;11.80;69.50;;;;;;5115571;28;20031;-79
2021/11/22 09:40:49;;;;;;;6.10;2.00;;;11.80;71.80;;;;;;5099220;28;20435;-79
2021/11/22 09:43:14;;;;;;;7.10;2.75;;;12.50;69.80;;;;;;5098377;28;20066;-81
2021/11/22 09:45:41;;;;;;;6.50;1.95;;;12.80;69.00;;;;;;5082196;28;20085;-79
2021/11/22 09:48:07;;;;;;;4.00;1.40;;;13.00;66.70;;;;;;5098966;28;20034;-79
2021/11/22 09:50:34;;;;;;;6.65;1.00;;;13.10;67.00;;;;;;5116124;28;20024;-80
2021/11/22 09:53:01;;;;;;;4.55;2.00;;;12.80;65.00;;;;;;5116749;28;20039;-80
2021/11/22 09:55:29;;;;;;;4.78;1.70;;;12.40;66.20;;;;;;5116734;28;20023;-80
2021/11/22 09:57:56;;;;;;;4.68;0.70;;;12.50;67.40;;;;;;5101743;28;20023;-80
2021/11/22 10:00:23;;;;;;;4.28;0.70;;;12.80;65.40;;;;;;5103456;28;20103;-79
2021/11/22 10:02:56;;;;;;;4.00;0.80;;;12.20;65.10;;;;;;5107576;28;20024;-78
2021/11/22 10:05:24;;;;;;;2.90;0.60;;;11.80;66.40;;;;;;5125057;28;20028;-79
2021/11/22 10:08:00;;;;;;;4.77;1.13;;;11.30;67.00;;;;;;5133304;28;20019;-80
2021/11/22 10:10:31;;;;;;;4.60;1.13;;;10.90;68.60;;;;;;5137398;28;20030;-78
2021/11/22 10:13:16;;;;;;;3.93;1.00;;;11.20;69.20;;;;;;5136540;28;20047;-79
2021/11/22 10:15:42;;;;;;;4.97;1.60;;;11.30;67.50;;;;;;5137626;28;20004;-79
2021/11/22 10:18:19;;;;;;;3.77;1.20;;;11.40;69.70;;;;;;5120523;28;20104;-80
2021/11/22 10:20:45;;;;;;;2.50;0.90;;;11.50;68.20;;;;;;5138207;28;20020;-78
2021/11/22 10:23:12;;;;;;;3.03;0.80;;;11.90;68.30;;;;;;5118843;28;20039;-80
2021/11/22 10:25:43;;;;;;;3.63;0.70;;;12.00;67.00;;;;;;5117369;28;20019;-81
2021/11/22 10:28:16;;;;;;;3.77;0.73;;;11.50;65.70;;;;;;5117347;28;20028;-80
2021/11/22 10:30:51;;;;;;;3.23;0.73;;;11.50;67.50;;;;;;5129915;28;20087;-78
2021/11/22 10:33:23;;;;;;;3.47;0.70;;;11.30;66.60;;;;;;5119061;28;20434;-80
2021/11/22 10:35:52;;;;;;;3.28;0.70;;;11.50;66.60;;;;;;5117584;28;20016;-79
2021/11/22 10:38:22;;;;;;;3.40;1.10;;;11.60;67.00;;;;;;5117838;28;20456;-80
2021/11/22 10:40:56;;;;;;;2.47;0.60;;;11.70;65.50;;;;;;5130666;28;20498;-78
2021/11/22 10:43:22;;;;;;;4.73;0.60;;;11.50;65.40;;;;;;5128678;28;20479;-78
2021/11/22 10:45:50;;;;;;;3.13;0.70;;;11.10;66.80;;;;;;5102995;28;20131;-78
2021/11/22 10:48:26;;;;;;;3.37;0.70;;;11.20;68.10;;;;;;5116329;28;20019;-80
2021/11/22 10:51:27;;;;;;;2.50;0.60;;;11.10;67.10;;;;;;5116760;28;20086;-79
2021/11/22 10:54:06;;;;;;;4.93;0.80;;;11.30;66.60;;;;;;5109466;28;20056;-78
2021/11/22 10:56:40;;;;;;;2.70;1.10;;;11.30;66.90;;;;;;5116108;28;20130;-79
2021/11/22 10:59:14;;;;;;;2.27;0.70;;;11.00;67.70;;;;;;5116144;28;20027;-79
2021/11/22 11:01:51;;;;;;;3.80;0.60;;;11.10;67.30;;;;;;5115136;28;20106;-81
2021/11/22 11:04:31;;;;;;;3.37;0.60;;;11.40;66.90;;;;;;5115315;28;20027;-80
2021/11/22 11:07:07;;;;;;;2.60;0.60;;;10.90;65.70;;;;;;5114742;28;20391;-82
2021/11/22 11:09:52;;;;;;;4.20;1.00;;;10.70;68.10;;;;;;5114504;28;20084;-79
2021/11/22 11:12:20;;;;;;;2.40;0.60;;;11.10;69.50;;;;;;5115171;28;20019;-81
2021/11/22 11:14:47;;;;;;;2.33;0.80;;;11.40;67.00;;;;;;5114612;28;20035;-80
2021/11/22 11:17:18;;;;;;;3.33;0.60;;;11.50;66.00;;;;;;5114644;28;20076;-80
2021/11/22 11:19:46;;;;;;;3.03;0.60;;;11.40;65.60;;;;;;5113922;28;20393;-80
2021/11/22 11:22:13;;;;;;;2.33;0.40;;;11.10;65.30;;;;;;5113742;28;20421;-80
2021/11/22 11:24:39;;;;;;;3.00;0.60;;;10.70;66.40;;;;;;5113189;28;20069;-83
2021/11/22 11:27:05;;;;;;;4.43;1.00;;;10.60;67.00;;;;;;5114669;28;20027;-81
2021/11/22 11:29:32;;;;;;;3.20;0.80;;;10.50;67.80;;;;;;5114884;28;20028;-79
2021/11/22 11:31:58;;;;;;;2.10;0.60;;;10.50;68.10;;;;;;5096413;28;20028;-79
2021/11/22 11:34:29;;;;;;;1.63;0.50;;;10.40;67.90;;;;;;5113442;28;20073;-80
2021/11/22 11:37:10;;;;;;;2.47;0.83;;;10.10;67.70;;;;;;5114492;28;20521;-80
2021/11/22 11:40:03;;;;;;;2.50;0.50;;;10.30;70.90;;;;;;5113071;28;20020;-81
2021/11/22 11:42:41;;;;;;;4.07;0.70;;;10.70;66.90;;;;;;5114203;28;20042;-80
2021/11/22 11:45:18;;;;;;;2.77;0.70;;;10.50;67.00;;;;;;5113107;28;20028;-80
2021/11/22 11:47:48;;;;;;;1.43;0.40;;;10.00;68.10;;;;;;5113057;28;20096;-79
2021/11/22 11:50:25;;;;;;;1.53;0.40;;;10.00;67.90;;;;;;5114287;28;20077;-82
2021/11/22 11:52:55;;;;;;;2.50;0.50;;;9.60;68.00;;;;;;5113880;28;20110;-81
2021/11/22 11:55:22;;;;;;;1.13;0.40;;;9.70;69.80;;;;;;5114350;28;20039;-83
2021/11/22 11:57:48;;;;;;;2.60;0.40;;;9.90;68.80;;;;;;5095500;28;20032;-81
2021/11/22 12:00:23;;;;;;;2.23;0.40;;;9.90;69.50;;;;;;5113351;28;20027;-80
2021/11/22 12:03:03;;;;;;;3.57;0.40;;;9.90;68.00;;;;;;5112565;28;20028;-81
2021/11/22 12:05:50;;;;;;;1.97;0.30;;;9.70;68.70;;;;;;5114640;28;20038;-81
2021/11/22 12:08:24;;;;;;;1.90;0.40;;;9.50;66.00;;;;;;5113936;28;20043;-79
2021/11/22 12:10:50;;;;;;;1.33;0.30;;;9.20;67.10;;;;;;5113953;28;20024;-80
2021/11/22 12:13:16;;;;;;;5.40;0.40;;;9.00;66.70;;;;;;5095912;28;20463;-82
2021/11/22 12:15:43;;;;;;;2.70;0.40;;;8.70;67.20;;;;;;5113124;28;20118;-84
2021/11/22 12:18:29;;;;;;;1.40;0.30;;;8.70;68.00;;;;;;5112876;28;20134;-80
2021/11/22 12:21:16;;;;;;;1.40;0.40;;;8.60;68.20;;;;;;5116450;28;20471;-82
2021/11/22 12:23:48;;;;;;;1.57;0.43;;;8.50;68.10;;;;;;5120309;28;20024;-81
2021/11/22 12:26:31;;;;;;;2.15;0.30;;;8.50;68.60;;;;;;5116663;28;20096;-78
2021/11/22 12:28:58;;;;;;;2.65;0.50;;;8.40;68.60;;;;;;5117621;28;20023;-80
2021/11/22 12:31:27;;;;;;;3.37;0.50;;;8.40;68.60;;;;;;5116233;28;20122;-79
2021/11/22 12:34:06;;;;;;;3.20;0.40;;;8.40;69.40;;;;;;5117234;28;20070;-80
2021/11/22 12:36:35;;;;;;;1.80;0.60;;;8.40;69.60;;;;;;5117557;28;20028;-81
2021/11/22 12:39:21;;;;;;;2.07;0.50;;;8.40;69.00;;;;;;5118160;28;20027;-82
2021/11/22 12:41:47;;;;;;;2.13;0.80;;;8.50;69.50;;;;;;5117851;28;20030;-80
2021/11/22 12:44:15;;;;;;;1.07;0.50;;;8.50;70.80;;;;;;5100334;28;20032;-82
2021/11/22 12:46:40;;;;;;;5.27;0.50;;;8.70;70.60;;;;;;5116137;28;20218;-79
2021/11/22 12:49:28;;;;;;;2.40;0.40;;;8.70;69.90;;;;;;5115736;28;20136;-80
2021/11/22 12:51:56;;;;;;;2.27;0.97;;;8.60;69.90;;;;;;5103455;28;20426;-80
2021/11/22 12:54:22;;;;;;;4.20;1.07;;;8.60;70.70;;;;;;5098745;28;20387;-79